createdAt,value
2019-01-02T00:02:27.393Z,28.10
2019-01-02T00:07:36.497Z,26.99
2019-01-02T00:12:45.661Z,33.90
2019-01-02T00:17:55.064Z,29.02
2019-01-02T00:23:04.296Z,29.65
2019-01-02T00:28:13.402Z,36.76
2019-01-02T00:33:22.677Z,37.71
2019-01-02T00:38:31.870Z,27.98
2019-01-02T00:43:41.088Z,27.16
2019-01-02T00:48:50.284Z,28.15
2019-01-02T00:53:59.565Z,28.49
2019-01-02T00:59:08.693Z,30.93
2019-01-02T01:04:17.998Z,30.49
2019-01-02T01:09:27.153Z,24.30
2019-01-02T01:14:36.449Z,24.34
2019-01-02T01:19:45.577Z,20.37
2019-01-02T01:24:54.768Z,18.32
2019-01-02T01:30:04.171Z,18.25
2019-01-02T01:35:13.457Z,20.51
2019-01-02T01:40:22.609Z,17.78
2019-01-02T01:45:31.934Z,13.98
2019-01-02T01:50:41.043Z,16.31
2019-01-02T01:55:49.713Z,15.60
2019-01-02T02:00:58.881Z,16.17
2019-01-02T02:06:08.154Z,19.33
2019-01-02T02:11:17.355Z,15.22
2019-01-02T02:16:26.642Z,10.61
2019-01-02T02:21:35.717Z,13.41
2019-01-02T02:26:44.926Z,12.52
2019-01-02T02:31:54.130Z,14.85
2019-01-02T02:37:03.421Z,13.05
2019-01-02T02:42:12.629Z,15.08
2019-01-02T02:47:21.879Z,15.19
2019-01-02T02:52:30.972Z,12.15
2019-01-02T02:57:40.217Z,12.15
2019-01-02T03:02:49.520Z,11.41
2019-01-02T03:07:58.725Z,14.74
2019-01-02T03:13:07.804Z,14.87
2019-01-02T03:18:17.078Z,10.67
2019-01-02T03:23:26.154Z,12.94
2019-01-02T03:28:35.354Z,16.26
2019-01-02T03:33:44.429Z,15.48
2019-01-02T03:38:53.729Z,14.68
2019-01-02T03:44:02.858Z,15.54
2019-01-02T03:49:12.044Z,14.30
2019-01-02T03:54:21.249Z,16.52
2019-01-02T03:59:30.510Z,16.04
2019-01-02T04:04:39.709Z,15.26
2019-01-02T04:09:49.005Z,17.30
2019-01-02T04:14:58.352Z,15.86
2019-01-02T04:20:07.622Z,19.61
2019-01-02T04:25:16.721Z,18.81
2019-01-02T04:30:26.009Z,17.44
2019-01-02T04:35:35.220Z,17.19
2019-01-02T04:40:44.493Z,18.22
2019-01-02T04:45:53.619Z,19.42
2019-01-02T04:51:02.881Z,17.20
2019-01-02T04:56:11.957Z,16.75
2019-01-02T05:01:21.316Z,18.96
2019-01-02T05:06:30.535Z,15.34
2019-01-02T05:11:40.010Z,18.08
2019-01-02T05:16:49.177Z,12.71
2019-01-02T05:21:58.475Z,15.88
2019-01-02T05:27:07.682Z,13.67
2019-01-02T05:32:16.933Z,11.47
2019-01-02T05:37:26.265Z,14.20
2019-01-02T05:42:35.676Z,10.17
2019-01-02T05:47:44.862Z,10.88
2019-01-02T05:52:54.202Z,9.72
2019-01-02T05:58:03.391Z,11.15
2019-01-02T06:03:12.683Z,7.55
2019-01-02T06:08:21.839Z,6.96
2019-01-02T06:13:31.093Z,9.56
2019-01-02T06:18:40.298Z,7.50
2019-01-02T06:23:49.497Z,6.59
2019-01-02T06:28:58.697Z,9.52
2019-01-02T06:34:07.901Z,5.67
2019-01-02T06:39:17.269Z,8.72
2019-01-02T06:44:26.565Z,8.03
2019-01-02T06:49:35.888Z,6.78
2019-01-02T06:54:45.303Z,7.74
2019-01-02T06:59:54.629Z,6.62
2019-01-02T07:05:03.914Z,6.58
2019-01-02T07:10:13.101Z,6.84
2019-01-02T07:15:23.591Z,5.96
2019-01-02T07:20:31.105Z,4.76
2019-01-02T07:25:40.525Z,5.55
2019-01-02T07:30:49.641Z,5.93
2019-01-02T07:35:58.878Z,5.59
2019-01-02T07:41:07.951Z,5.37
2019-01-02T07:46:17.157Z,4.70
2019-01-02T07:51:26.218Z,9.92
2019-01-02T07:56:35.533Z,5.20
2019-01-02T08:01:46.339Z,4.47
2019-01-02T08:06:45.589Z,4.98
2019-01-02T08:11:54.733Z,4.53
2019-01-02T08:17:03.981Z,6.08
2019-01-02T08:22:13.153Z,4.03
2019-01-02T08:27:22.350Z,4.61
2019-01-02T08:32:31.407Z,4.49
2019-01-02T08:37:40.741Z,4.33
2019-01-02T08:42:49.825Z,5.10
2019-01-02T08:47:59.038Z,4.36
2019-01-02T08:53:08.365Z,4.36
2019-01-02T08:58:17.589Z,3.70
2019-01-02T09:03:26.780Z,4.71
2019-01-02T09:08:35.998Z,4.04
2019-01-02T09:13:45.087Z,4.41
2019-01-02T09:18:54.329Z,5.06
2019-01-02T09:24:03.473Z,3.76
2019-01-02T09:29:12.733Z,4.82
2019-01-02T09:34:21.894Z,6.27
2019-01-02T09:39:31.198Z,3.95
2019-01-02T09:44:40.329Z,4.85
2019-01-02T09:49:49.586Z,7.39
2019-01-02T09:55:01.506Z,7.15
2019-01-02T10:00:07.489Z,7.76
2019-01-02T10:05:16.682Z,4.15
2019-01-02T10:10:25.950Z,8.97
2019-01-02T10:15:35.075Z,5.90
2019-01-02T10:20:44.295Z,4.50
2019-01-02T10:25:53.663Z,4.73
2019-01-02T10:31:03.141Z,4.21
2019-01-02T10:36:12.349Z,5.18
2019-01-02T10:41:21.605Z,5.17
2019-01-02T10:46:30.782Z,4.62
2019-01-02T10:51:40.050Z,4.99
2019-01-02T10:56:49.233Z,5.38
2019-01-02T11:01:58.453Z,4.68
2019-01-02T11:07:07.543Z,4.20
2019-01-02T11:12:16.802Z,4.62
2019-01-02T11:17:25.934Z,5.91
2019-01-02T11:22:35.197Z,5.98
2019-01-02T11:27:44.377Z,4.78
2019-01-02T11:32:53.608Z,6.74
2019-01-02T11:38:02.825Z,5.08
2019-01-02T11:43:12.145Z,5.21
2019-01-02T11:48:21.246Z,7.53
2019-01-02T11:53:30.732Z,3.78
2019-01-02T11:58:39.901Z,5.92
2019-01-02T12:03:49.314Z,6.61
2019-01-02T12:08:58.543Z,6.15
2019-01-02T12:14:07.818Z,6.19
2019-01-02T12:19:16.912Z,6.27
2019-01-02T12:24:26.339Z,8.22
2019-01-02T12:29:35.470Z,4.25
2019-01-02T12:34:44.913Z,5.10
2019-01-02T12:39:52.881Z,5.25
2019-01-02T12:45:02.105Z,3.98
2019-01-02T12:50:11.442Z,4.41
2019-01-02T12:55:20.700Z,4.46
2019-01-02T13:00:29.797Z,5.78
2019-01-02T13:05:39.085Z,5.24
2019-01-02T13:10:48.193Z,4.82
2019-01-02T13:16:00.292Z,3.05
2019-01-02T13:20:59.355Z,3.49
2019-01-02T13:26:08.604Z,3.90
2019-01-02T13:31:17.685Z,4.96
2019-01-02T13:36:27.267Z,3.71
2019-01-02T13:41:36.500Z,3.72
2019-01-02T13:46:45.758Z,4.09
2019-01-02T13:51:54.961Z,3.26
2019-01-02T13:57:04.217Z,3.97
2019-01-02T14:02:13.328Z,4.78
2019-01-02T14:07:22.653Z,3.93
2019-01-02T14:12:31.834Z,4.14
2019-01-02T14:17:41.073Z,3.85
2019-01-02T14:22:50.277Z,5.15
2019-01-02T14:27:59.505Z,4.36
2019-01-02T14:33:11.477Z,4.37
2019-01-02T14:38:10.652Z,5.03
2019-01-02T14:43:19.827Z,5.24
2019-01-02T14:48:29.096Z,4.88
2019-01-02T14:53:38.319Z,5.06
2019-01-02T14:58:47.629Z,4.37
2019-01-02T15:03:57.068Z,3.90
2019-01-02T15:09:06.278Z,3.91
2019-01-02T15:14:15.445Z,5.44
2019-01-02T15:19:24.913Z,4.06
2019-01-02T15:24:34.089Z,6.83
2019-01-02T15:29:43.384Z,4.54
2019-01-02T15:34:52.786Z,4.69
2019-01-02T15:40:02.338Z,3.29
2019-01-02T15:45:11.433Z,4.14
2019-01-02T15:50:20.716Z,5.22
2019-01-02T15:55:29.844Z,3.82
2019-01-02T16:00:39.102Z,3.94
2019-01-02T16:05:48.527Z,4.30
2019-01-02T16:10:58.068Z,5.69
2019-01-02T16:16:07.188Z,4.24
2019-01-02T16:21:16.645Z,3.74
2019-01-02T16:26:26.111Z,5.11
2019-01-02T16:31:35.448Z,4.19
2019-01-02T16:36:44.814Z,4.58
2019-01-02T16:41:54.100Z,3.87
2019-01-02T16:47:03.178Z,4.10
2019-01-02T16:52:12.473Z,4.31
2019-01-02T16:57:21.648Z,4.53
2019-01-02T17:02:30.866Z,5.75
2019-01-02T17:07:40.074Z,4.16
2019-01-02T17:12:49.478Z,5.57
2019-01-02T17:17:58.565Z,5.41
2019-01-02T17:23:07.881Z,4.89
2019-01-02T17:28:17.009Z,5.06
2019-01-02T17:33:26.257Z,5.01
2019-01-02T17:38:35.351Z,4.97
2019-01-02T17:43:44.527Z,5.78
2019-01-02T17:48:53.705Z,5.75
2019-01-02T17:54:03.260Z,5.45
2019-01-02T17:59:12.480Z,4.43
2019-01-02T18:04:21.888Z,6.02
2019-01-02T18:09:31.117Z,6.43
2019-01-02T18:14:40.362Z,4.32
2019-01-02T18:19:49.804Z,5.04
2019-01-02T18:24:59.311Z,6.07
2019-01-02T18:30:08.425Z,5.32
2019-01-02T18:35:17.723Z,4.49
2019-01-02T18:40:27.355Z,5.38
2019-01-02T18:45:36.606Z,5.55
2019-01-02T18:50:45.710Z,5.83
2019-01-02T18:55:55.172Z,5.83
2019-01-02T19:01:04.389Z,5.65
2019-01-02T19:06:13.790Z,4.83
2019-01-02T19:11:23.013Z,5.39
2019-01-02T19:16:32.262Z,5.63
2019-01-02T19:21:41.505Z,6.01
2019-01-02T19:26:50.781Z,6.78
2019-01-02T19:31:59.954Z,5.77
2019-01-02T19:37:09.193Z,5.37
2019-01-02T19:42:18.331Z,5.94
2019-01-02T19:47:27.817Z,4.97
2019-01-02T19:52:36.989Z,6.40
2019-01-02T19:57:46.181Z,5.37
2019-01-02T20:02:55.327Z,5.40
2019-01-02T20:08:04.819Z,9.79
2019-01-02T20:13:14.029Z,5.40
2019-01-02T20:18:23.217Z,6.63
2019-01-02T20:23:32.442Z,6.93
2019-01-02T20:28:41.640Z,7.83
2019-01-02T20:33:50.841Z,5.84
2019-01-02T20:39:00.241Z,10.61
2019-01-02T20:44:09.390Z,10.54
2019-01-02T20:49:18.690Z,8.04
2019-01-02T20:54:27.777Z,6.24
2019-01-02T20:59:37.118Z,9.27
2019-01-02T21:04:46.229Z,7.01
2019-01-02T21:09:55.636Z,5.85
2019-01-02T21:15:04.798Z,5.88
2019-01-02T21:20:14.071Z,4.94
2019-01-02T21:25:23.330Z,5.68
2019-01-02T21:30:32.634Z,6.32
2019-01-02T21:35:41.820Z,6.77
2019-01-02T21:40:51.101Z,7.61
2019-01-02T21:46:00.245Z,6.75
2019-01-02T21:51:09.477Z,5.91
2019-01-02T21:56:18.630Z,5.74
2019-01-02T22:01:29.921Z,7.36
2019-01-02T22:06:29.013Z,5.08
2019-01-02T22:11:39.111Z,5.54
2019-01-02T22:16:47.315Z,6.27
2019-01-02T22:21:56.682Z,6.37
2019-01-02T22:27:05.885Z,5.28
2019-01-02T22:32:15.118Z,6.04
2019-01-02T22:37:24.343Z,6.23
2019-01-02T22:42:33.651Z,5.77
2019-01-02T22:47:42.747Z,5.27
2019-01-02T22:52:52.196Z,5.26
2019-01-02T22:58:01.316Z,6.66
2019-01-02T23:03:10.755Z,5.38
2019-01-02T23:08:19.868Z,6.26
2019-01-02T23:13:29.181Z,5.16
2019-01-02T23:18:38.350Z,6.22
2019-01-02T23:23:47.638Z,6.09
2019-01-02T23:28:56.845Z,6.31
2019-01-02T23:34:06.237Z,5.64
2019-01-02T23:39:15.415Z,5.92
2019-01-02T23:44:24.613Z,5.07
2019-01-02T23:49:33.698Z,6.16
2019-01-02T23:54:42.941Z,6.65
2019-01-02T23:59:52.424Z,5.70
